sensor_id;sensor_type;location;lat;lon;timestamp;pressure;altitude;pressure_sealevel;temperature;humidity
7918;BME280;4004;42.624;23.386;2023-04-15T00:01:39;93361.50;;;7.61;77.70
7918;BME280;4004;42.624;23.386;2023-04-15T00:04:06;93363.34;;;7.57;78.42
7918;BME280;4004;42.624;23.386;2023-04-15T00:06:36;93358.72;;;7.54;79.10
7918;BME280;4004;42.624;23.386;2023-04-15T00:09:03;93363.13;;;7.46;76.28
7918;BME280;4004;42.624;23.386;2023-04-15T00:11:30;93357.09;;;7.11;74.67
7918;BME280;4004;42.624;23.386;2023-04-15T00:13:57;93362.31;;;7.03;78.75
7918;BME280;4004;42.624;23.386;2023-04-15T00:16:24;93374.75;;;7.15;79.22
7918;BME280;4004;42.624;23.386;2023-04-15T00:18:51;93371.03;;;7.20;79.32
7918;BME280;4004;42.624;23.386;2023-04-15T00:21:18;93371.03;;;7.20;79.46
7918;BME280;4004;42.624;23.386;2023-04-15T00:23:46;93391.09;;;7.30;79.54
7918;BME280;4004;42.624;23.386;2023-04-15T00:26:16;93384.13;;;7.25;78.97
7918;BME280;4004;42.624;23.386;2023-04-15T00:28:44;93393.63;;;7.42;79.54
7918;BME280;4004;42.624;23.386;2023-04-15T00:31:10;93387.19;;;7.46;78.75
7918;BME280;4004;42.624;23.386;2023-04-15T00:33:37;93371.16;;;7.46;78.23
7918;BME280;4004;42.624;23.386;2023-04-15T00:36:06;93383.25;;;7.60;77.69
7918;BME280;4004;42.624;23.386;2023-04-15T00:38:32;93379.59;;;7.29;77.75
7918;BME280;4004;42.624;23.386;2023-04-15T00:41:02;93389.53;;;7.29;78.85
7918;BME280;4004;42.624;23.386;2023-04-15T00:43:29;93387.00;;;7.36;81.25
7918;BME280;4004;42.624;23.386;2023-04-15T00:45:55;93396.13;;;7.15;80.35
7918;BME280;4004;42.624;23.386;2023-04-15T00:48:25;93397.06;;;7.23;83.67
7918;BME280;4004;42.624;23.386;2023-04-15T00:50:52;93395.88;;;7.40;86.15
7918;BME280;4004;42.624;23.386;2023-04-15T00:53:19;93393.53;;;7.58;87.97
7918;BME280;4004;42.624;23.386;2023-04-15T00:55:46;93402.63;;;7.53;89.66
7918;BME280;4004;42.624;23.386;2023-04-15T00:58:14;93397.47;;;7.05;88.76
7918;BME280;4004;42.624;23.386;2023-04-15T01:00:41;93394.72;;;7.02;92.94
7918;BME280;4004;42.624;23.386;2023-04-15T01:03:08;93401.34;;;7.08;94.60
7918;BME280;4004;42.624;23.386;2023-04-15T01:05:35;93409.63;;;7.22;93.74
7918;BME280;4004;42.624;23.386;2023-04-15T01:08:04;93408.03;;;7.18;95.44
7918;BME280;4004;42.624;23.386;2023-04-15T01:10:31;93398.69;;;7.28;100.00
7918;BME280;4004;42.624;23.386;2023-04-15T01:12:58;93395.91;;;7.04;94.82
7918;BME280;4004;42.624;23.386;2023-04-15T01:15:26;93405.34;;;6.82;93.54
7918;BME280;4004;42.624;23.386;2023-04-15T01:17:53;93395.00;;;6.61;97.30
7918;BME280;4004;42.624;23.386;2023-04-15T01:20:20;93387.06;;;6.65;98.38
7918;BME280;4004;42.624;23.386;2023-04-15T01:22:48;93385.25;;;6.53;98.99
7918;BME280;4004;42.624;23.386;2023-04-15T01:25:17;93391.84;;;6.08;100.00
7918;BME280;4004;42.624;23.386;2023-04-15T01:27:46;93376.25;;;6.10;100.00
7918;BME280;4004;42.624;23.386;2023-04-15T01:30:12;93382.91;;;6.16;100.00
7918;BME280;4004;42.624;23.386;2023-04-15T01:32:39;93382.78;;;6.29;100.00
7918;BME280;4004;42.624;23.386;2023-04-15T01:35:07;93392.09;;;6.03;100.00
7918;BME280;4004;42.624;23.386;2023-04-15T01:37:34;93396.13;;;5.97;100.00
7918;BME280;4004;42.624;23.386;2023-04-15T01:40:02;93387.38;;;5.68;100.00
7918;BME280;4004;42.624;23.386;2023-04-15T01:42:30;93390.88;;;5.56;100.00
7918;BME280;4004;42.624;23.386;2023-04-15T01:44:59;93390.31;;;5.63;100.00
7918;BME280;4004;42.624;23.386;2023-04-15T01:47:26;93381.88;;;5.61;100.00
7918;BME280;4004;42.624;23.386;2023-04-15T01:49:53;93393.88;;;5.83;100.00
7918;BME280;4004;42.624;23.386;2023-04-15T01:52:20;93394.47;;;5.76;100.00
7918;BME280;4004;42.624;23.386;2023-04-15T01:54:47;93401.91;;;5.71;100.00
7918;BME280;4004;42.624;23.386;2023-04-15T01:57:13;93396.69;;;5.74;100.00
7918;BME280;4004;42.624;23.386;2023-04-15T01:59:40;93400.03;;;5.71;100.00
7918;BME280;4004;42.624;23.386;2023-04-15T02:02:08;93397.03;;;5.73;100.00
7918;BME280;4004;42.624;23.386;2023-04-15T02:04:35;93397.88;;;5.77;100.00
7918;BME280;4004;42.624;23.386;2023-04-15T02:07:02;93393.94;;;5.87;100.00
7918;BME280;4004;42.624;23.386;2023-04-15T02:09:29;93401.03;;;5.95;100.00
7918;BME280;4004;42.624;23.386;2023-04-15T02:11:55;93405.78;;;6.01;100.00
7918;BME280;4004;42.624;23.386;2023-04-15T02:14:22;93405.19;;;6.08;100.00
7918;BME280;4004;42.624;23.386;2023-04-15T02:16:49;93402.78;;;6.19;100.00
7918;BME280;4004;42.624;23.386;2023-04-15T02:19:17;93395.56;;;5.75;100.00
7918;BME280;4004;42.624;23.386;2023-04-15T02:21:44;93392.94;;;5.47;100.00
7918;BME280;4004;42.624;23.386;2023-04-15T02:24:10;93391.91;;;5.52;100.00
7918;BME280;4004;42.624;23.386;2023-04-15T02:26:37;93389.00;;;5.57;100.00
7918;BME280;4004;42.624;23.386;2023-04-15T02:29:04;93387.19;;;5.61;100.00
7918;BME280;4004;42.624;23.386;2023-04-15T02:31:31;93386.69;;;5.71;100.00
7918;BME280;4004;42.624;23.386;2023-04-15T02:34:01;93372.25;;;5.72;100.00
7918;BME280;4004;42.624;23.386;2023-04-15T02:36:30;93374.16;;;5.88;100.00
7918;BME280;4004;42.624;23.386;2023-04-15T02:38:56;93366.22;;;5.75;100.00
7918;BME280;4004;42.624;23.386;2023-04-15T02:41:24;93377.69;;;5.76;100.00
7918;BME280;4004;42.624;23.386;2023-04-15T02:43:52;93369.16;;;5.70;100.00
7918;BME280;4004;42.624;23.386;2023-04-15T02:46:19;93376.06;;;5.87;100.00
7918;BME280;4004;42.624;23.386;2023-04-15T02:48:47;93387.38;;;5.96;100.00
7918;BME280;4004;42.624;23.386;2023-04-15T02:51:14;93388.22;;;6.00;100.00
7918;BME280;4004;42.624;23.386;2023-04-15T02:53:43;93383.03;;;5.92;100.00
7918;BME280;4004;42.624;23.386;2023-04-15T02:56:10;93378.47;;;5.92;100.00
7918;BME280;4004;42.624;23.386;2023-04-15T02:58:38;93364.78;;;5.94;100.00
7918;BME280;4004;42.624;23.386;2023-04-15T03:01:05;93383.81;;;5.92;100.00
7918;BME280;4004;42.624;23.386;2023-04-15T03:03:33;93387.19;;;5.61;100.00
7918;BME280;4004;42.624;23.386;2023-04-15T03:06:00;93416.78;;;5.56;100.00
7918;BME280;4004;42.624;23.386;2023-04-15T03:08:26;93412.31;;;5.60;100.00
7918;BME280;4004;42.624;23.386;2023-04-15T03:10:57;93405.25;;;5.52;100.00
7918;BME280;4004;42.624;23.386;2023-04-15T03:13:25;93419.16;;;5.45;100.00
7918;BME280;4004;42.624;23.386;2023-04-15T03:15:51;93411.84;;;5.58;100.00
7918;BME280;4004;42.624;23.386;2023-04-15T03:18:18;93415.41;;;5.62;100.00
7918;BME280;4004;42.624;23.386;2023-04-15T03:20:45;93411.78;;;5.54;100.00
7918;BME280;4004;42.624;23.386;2023-04-15T03:23:12;93420.84;;;5.66;100.00
7918;BME280;4004;42.624;23.386;2023-04-15T03:25:39;93417.69;;;5.76;100.00
7918;BME280;4004;42.624;23.386;2023-04-15T03:28:07;93426.97;;;5.82;100.00
7918;BME280;4004;42.624;23.386;2023-04-15T03:30:34;93438.34;;;5.79;100.00
7918;BME280;4004;42.624;23.386;2023-04-15T03:33:00;93445.31;;;5.84;100.00
7918;BME280;4004;42.624;23.386;2023-04-15T03:35:27;93434.03;;;5.74;100.00
7918;BME280;4004;42.624;23.386;2023-04-15T03:37:54;93435.13;;;5.73;100.00
7918;BME280;4004;42.624;23.386;2023-04-15T03:40:20;93439.53;;;5.81;100.00
7918;BME280;4004;42.624;23.386;2023-04-15T03:42:47;93438.97;;;5.60;100.00
7918;BME280;4004;42.624;23.386;2023-04-15T03:45:16;93446.44;;;5.54;100.00
7918;BME280;4004;42.624;23.386;2023-04-15T03:47:42;93460.59;;;5.71;100.00
7918;BME280;4004;42.624;23.386;2023-04-15T03:50:09;93448.13;;;5.75;100.00
7918;BME280;4004;42.624;23.386;2023-04-15T03:52:36;93459.78;;;5.82;100.00
7918;BME280;4004;42.624;23.386;2023-04-15T03:55:04;93466.06;;;5.90;100.00
7918;BME280;4004;42.624;23.386;2023-04-15T03:57:31;93468.00;;;6.06;100.00
7918;BME280;4004;42.624;23.386;2023-04-15T04:00:02;93442.91;;;6.22;100.00
7918;BME280;4004;42.624;23.386;2023-04-15T04:02:30;93438.22;;;6.51;100.00
7918;BME280;4004;42.624;23.386;2023-04-15T04:04:57;93450.50;;;7.03;100.00
7918;BME280;4004;42.624;23.386;2023-04-15T04:07:24;93460.13;;;7.43;100.00
7918;BME280;4004;42.624;23.386;2023-04-15T04:09:50;93470.38;;;8.00;100.00
7918;BME280;4004;42.624;23.386;2023-04-15T04:12:17;93463.91;;;8.66;100.00
7918;BME280;4004;42.624;23.386;2023-04-15T04:14:44;93471.81;;;9.36;100.00
7918;BME280;4004;42.624;23.386;2023-04-15T04:17:11;93473.88;;;10.10;96.97
7918;BME280;4004;42.624;23.386;2023-04-15T04:19:39;93476.59;;;10.95;92.73
7918;BME280;4004;42.624;23.386;2023-04-15T04:22:06;93482.13;;;11.83;87.60
7918;BME280;4004;42.624;23.386;2023-04-15T04:24:32;93483.16;;;12.59;81.60
7918;BME280;4004;42.624;23.386;2023-04-15T04:26:59;93480.47;;;13.38;74.64
7918;BME280;4004;42.624;23.386;2023-04-15T04:29:26;93486.50;;;13.99;63.77
7918;BME280;4004;42.624;23.386;2023-04-15T04:31:53;93488.53;;;14.62;59.37
7918;BME280;4004;42.624;23.386;2023-04-15T04:34:19;93479.84;;;15.37;55.62
7918;BME280;4004;42.624;23.386;2023-04-15T04:36:47;93478.63;;;16.17;53.11
7918;BME280;4004;42.624;23.386;2023-04-15T04:39:14;93485.22;;;16.47;50.53
7918;BME280;4004;42.624;23.386;2023-04-15T04:41:41;93497.22;;;17.08;48.96
7918;BME280;4004;42.624;23.386;2023-04-15T04:44:08;93486.59;;;18.08;46.99
7918;BME280;4004;42.624;23.386;2023-04-15T04:46:34;93490.22;;;18.94;44.37
7918;BME280;4004;42.624;23.386;2023-04-15T04:49:01;93496.66;;;19.53;42.80
7918;BME280;4004;42.624;23.386;2023-04-15T04:51:28;93496.31;;;19.51;41.50
7918;BME280;4004;42.624;23.386;2023-04-15T04:53:56;93496.31;;;19.01;41.06
7918;BME280;4004;42.624;23.386;2023-04-15T04:56:23;93496.72;;;18.63;41.06
7918;BME280;4004;42.624;23.386;2023-04-15T04:58:50;93504.16;;;18.03;42.12
7918;BME280;4004;42.624;23.386;2023-04-15T05:01:16;93506.03;;;17.39;42.84
7918;BME280;4004;42.624;23.386;2023-04-15T05:03:43;93510.50;;;17.26;43.34
7918;BME280;4004;42.624;23.386;2023-04-15T05:06:10;93510.16;;;17.94;42.64
7918;BME280;4004;42.624;23.386;2023-04-15T05:08:36;93521.22;;;18.63;41.40
7918;BME280;4004;42.624;23.386;2023-04-15T05:11:06;93534.06;;;19.52;40.05
7918;BME280;4004;42.624;23.386;2023-04-15T05:13:33;93535.25;;;20.42;38.84
7918;BME280;4004;42.624;23.386;2023-04-15T05:16:03;93540.22;;;21.28;37.31
7918;BME280;4004;42.624;23.386;2023-04-15T05:18:30;93530.97;;;21.86;36.14
7918;BME280;4004;42.624;23.386;2023-04-15T05:20:57;93536.63;;;21.91;35.24
7918;BME280;4004;42.624;23.386;2023-04-15T05:23:24;93535.34;;;21.83;35.58
7918;BME280;4004;42.624;23.386;2023-04-15T05:25:50;93532.69;;;21.92;34.62
7918;BME280;4004;42.624;23.386;2023-04-15T05:28:18;93543.47;;;22.09;34.54
7918;BME280;4004;42.624;23.386;2023-04-15T05:30:45;93543.47;;;22.09;34.13
7918;BME280;4004;42.624;23.386;2023-04-15T05:33:12;93547.44;;;22.08;34.67
7918;BME280;4004;42.624;23.386;2023-04-15T05:35:39;93533.50;;;21.80;34.95
7918;BME280;4004;42.624;23.386;2023-04-15T05:38:05;93543.75;;;21.41;35.13
7918;BME280;4004;42.624;23.386;2023-04-15T05:40:32;93539.00;;;20.90;34.01
7918;BME280;4004;42.624;23.386;2023-04-15T05:42:59;93528.13;;;20.61;33.86
7918;BME280;4004;42.624;23.386;2023-04-15T05:45:27;93544.19;;;20.30;35.15
7918;BME280;4004;42.624;23.386;2023-04-15T05:47:54;93541.44;;;19.35;36.10
7918;BME280;4004;42.624;23.386;2023-04-15T05:50:21;93544.69;;;18.17;38.47
7918;BME280;4004;42.624;23.386;2023-04-15T05:52:47;93542.69;;;17.51;39.21
7918;BME280;4004;42.624;23.386;2023-04-15T05:55:14;93519.06;;;16.39;40.82
7918;BME280;4004;42.624;23.386;2023-04-15T05:57:41;93545.13;;;16.29;42.43
7918;BME280;4004;42.624;23.386;2023-04-15T06:00:09;93564.38;;;16.04;41.96
7918;BME280;4004;42.624;23.386;2023-04-15T06:02:37;93557.56;;;15.89;43.56
7918;BME280;4004;42.624;23.386;2023-04-15T06:05:04;93548.66;;;16.26;44.14
7918;BME280;4004;42.624;23.386;2023-04-15T06:07:34;93547.66;;;16.09;41.90
7918;BME280;4004;42.624;23.386;2023-04-15T06:10:01;93555.09;;;16.05;43.24
7918;BME280;4004;42.624;23.386;2023-04-15T06:12:28;93558.31;;;16.27;43.52
7918;BME280;4004;42.624;23.386;2023-04-15T06:14:55;93564.47;;;16.31;42.27
7918;BME280;4004;42.624;23.386;2023-04-15T06:17:21;93561.31;;;16.67;41.71
7918;BME280;4004;42.624;23.386;2023-04-15T06:19:49;93556.63;;;16.71;40.67
7918;BME280;4004;42.624;23.386;2023-04-15T06:22:20;93560.53;;;16.36;41.98
7918;BME280;4004;42.624;23.386;2023-04-15T06:24:46;93563.88;;;16.16;42.39
7918;BME280;4004;42.624;23.386;2023-04-15T06:27:13;93566.25;;;16.11;43.10
7918;BME280;4004;42.624;23.386;2023-04-15T06:29:40;93564.44;;;16.35;42.73
7918;BME280;4004;42.624;23.386;2023-04-15T06:32:07;93559.66;;;16.46;42.77
7918;BME280;4004;42.624;23.386;2023-04-15T06:34:33;93569.81;;;17.04;42.10
7918;BME280;4004;42.624;23.386;2023-04-15T06:37:02;93577.53;;;17.32;41.66
7918;BME280;4004;42.624;23.386;2023-04-15T06:39:28;93576.00;;;17.31;41.55
7918;BME280;4004;42.624;23.386;2023-04-15T06:41:55;93582.22;;;17.55;40.88
7918;BME280;4004;42.624;23.386;2023-04-15T06:44:22;93593.66;;;17.16;40.84
7918;BME280;4004;42.624;23.386;2023-04-15T06:46:49;93587.00;;;17.20;41.11
7918;BME280;4004;42.624;23.386;2023-04-15T06:49:16;93582.56;;;17.07;41.64
7918;BME280;4004;42.624;23.386;2023-04-15T06:51:42;93596.84;;;17.11;41.70
7918;BME280;4004;42.624;23.386;2023-04-15T06:54:11;93591.56;;;17.54;41.17
7918;BME280;4004;42.624;23.386;2023-04-15T06:56:37;93599.50;;;17.69;41.01
7918;BME280;4004;42.624;23.386;2023-04-15T06:59:04;93595.47;;;17.26;41.13
7918;BME280;4004;42.624;23.386;2023-04-15T07:01:31;93602.16;;;17.22;41.95
7918;BME280;4004;42.624;23.386;2023-04-15T07:03:58;93602.03;;;17.02;41.81
7918;BME280;4004;42.624;23.386;2023-04-15T07:06:25;93597.94;;;16.90;41.72
7918;BME280;4004;42.624;23.386;2023-04-15T07:08:52;93611.34;;;17.01;41.02
7918;BME280;4004;42.624;23.386;2023-04-15T07:11:21;93604.53;;;17.16;40.58
7918;BME280;4004;42.624;23.386;2023-04-15T07:13:48;93607.66;;;17.69;40.89
7918;BME280;4004;42.624;23.386;2023-04-15T07:16:14;93603.66;;;18.00;39.46
7918;BME280;4004;42.624;23.386;2023-04-15T07:18:41;93597.53;;;17.96;39.63
7918;BME280;4004;42.624;23.386;2023-04-15T07:21:09;93595.22;;;17.95;40.52
7918;BME280;4004;42.624;23.386;2023-04-15T07:23:36;93596.72;;;17.72;40.34
7918;BME280;4004;42.624;23.386;2023-04-15T07:26:03;93600.50;;;17.78;40.40
7918;BME280;4004;42.624;23.386;2023-04-15T07:28:31;93607.09;;;18.25;40.23
7918;BME280;4004;42.624;23.386;2023-04-15T07:30:57;93612.22;;;18.62;39.78
7918;BME280;4004;42.624;23.386;2023-04-15T07:33:25;93607.25;;;17.94;40.04
7918;BME280;4004;42.624;23.386;2023-04-15T07:35:52;93607.09;;;17.54;40.75
7918;BME280;4004;42.624;23.386;2023-04-15T07:38:18;93614.72;;;16.81;42.18
7918;BME280;4004;42.624;23.386;2023-04-15T07:40:45;93602.91;;;16.23;43.83
7918;BME280;4004;42.624;23.386;2023-04-15T07:43:12;93607.28;;;16.16;43.63
7918;BME280;4004;42.624;23.386;2023-04-15T07:45:40;93605.53;;;16.33;45.08
7918;BME280;4004;42.624;23.386;2023-04-15T07:48:07;93616.78;;;16.66;43.77
7918;BME280;4004;42.624;23.386;2023-04-15T07:50:34;93609.88;;;16.62;44.17
7918;BME280;4004;42.624;23.386;2023-04-15T07:53:01;93618.53;;;16.49;43.89
7918;BME280;4004;42.624;23.386;2023-04-15T07:55:27;93616.81;;;16.28;43.70
7918;BME280;4004;42.624;23.386;2023-04-15T07:57:55;93622.81;;;16.47;43.05
7918;BME280;4004;42.624;23.386;2023-04-15T08:00:22;93620.88;;;16.47;43.41
7918;BME280;4004;42.624;23.386;2023-04-15T08:02:50;93627.03;;;16.51;43.94
7918;BME280;4004;42.624;23.386;2023-04-15T08:05:18;93615.63;;;16.33;43.23
7918;BME280;4004;42.624;23.386;2023-04-15T08:07:44;93617.13;;;16.34;44.35
7918;BME280;4004;42.624;23.386;2023-04-15T08:10:11;93612.44;;;16.38;44.09
7918;BME280;4004;42.624;23.386;2023-04-15T08:12:38;93627.31;;;16.26;44.62
7918;BME280;4004;42.624;23.386;2023-04-15T08:15:06;93623.13;;;16.18;43.86
7918;BME280;4004;42.624;23.386;2023-04-15T08:17:33;93623.22;;;16.07;43.94
7918;BME280;4004;42.624;23.386;2023-04-15T08:20:02;93615.41;;;15.71;44.32
7918;BME280;4004;42.624;23.386;2023-04-15T08:22:30;93625.31;;;15.92;44.15
7918;BME280;4004;42.624;23.386;2023-04-15T08:24:56;93632.81;;;16.19;43.73
7918;BME280;4004;42.624;23.386;2023-04-15T08:27:23;93628.91;;;16.20;42.23
7918;BME280;4004;42.624;23.386;2023-04-15T08:29:50;93602.22;;;16.19;42.97
7918;BME280;4004;42.624;23.386;2023-04-15T08:32:17;93622.69;;;16.23;41.68
7918;BME280;4004;42.624;23.386;2023-04-15T08:34:44;93629.81;;;16.10;42.17
7918;BME280;4004;42.624;23.386;2023-04-15T08:37:12;93618.31;;;15.95;40.56
7918;BME280;4004;42.624;23.386;2023-04-15T08:39:39;93630.91;;;15.67;42.59
7918;BME280;4004;42.624;23.386;2023-04-15T08:42:11;93610.66;;;15.30;42.18
7918;BME280;4004;42.624;23.386;2023-04-15T08:44:42;93617.59;;;15.39;43.26
7918;BME280;4004;42.624;23.386;2023-04-15T08:47:12;93612.56;;;15.37;44.76
7918;BME280;4004;42.624;23.386;2023-04-15T08:49:39;93594.34;;;15.38;43.83
7918;BME280;4004;42.624;23.386;2023-04-15T08:52:07;93609.78;;;15.48;41.85
7918;BME280;4004;42.624;23.386;2023-04-15T08:54:36;93610.66;;;15.34;41.77
7918;BME280;4004;42.624;23.386;2023-04-15T08:57:04;93615.63;;;15.39;43.45
7918;BME280;4004;42.624;23.386;2023-04-15T08:59:31;93608.59;;;15.49;41.91
7918;BME280;4004;42.624;23.386;2023-04-15T09:01:58;93610.06;;;15.61;41.24
7918;BME280;4004;42.624;23.386;2023-04-15T09:04:25;93602.34;;;15.55;42.76
7918;BME280;4004;42.624;23.386;2023-04-15T09:06:53;93596.03;;;15.69;41.48
7918;BME280;4004;42.624;23.386;2023-04-15T09:09:20;93587.59;;;15.60;40.17
7918;BME280;4004;42.624;23.386;2023-04-15T09:11:48;93577.34;;;15.86;42.61
7918;BME280;4004;42.624;23.386;2023-04-15T09:14:15;93579.69;;;15.84;41.59
7918;BME280;4004;42.624;23.386;2023-04-15T09:17:00;93567.78;;;15.70;40.62
7918;BME280;4004;42.624;23.386;2023-04-15T09:19:28;93576.72;;;15.67;39.16
7918;BME280;4004;42.624;23.386;2023-04-15T09:21:56;93568.56;;;15.74;38.80
7918;BME280;4004;42.624;23.386;2023-04-15T09:24:23;93566.94;;;15.81;37.93
7918;BME280;4004;42.624;23.386;2023-04-15T09:26:53;93575.84;;;15.81;37.96
7918;BME280;4004;42.624;23.386;2023-04-15T09:29:25;93575.16;;;16.11;38.22
7918;BME280;4004;42.624;23.386;2023-04-15T09:31:51;93573.88;;;16.23;37.58
7918;BME280;4004;42.624;23.386;2023-04-15T09:34:18;93578.75;;;16.39;37.75
7918;BME280;4004;42.624;23.386;2023-04-15T09:36:54;93579.16;;;16.68;38.51
7918;BME280;4004;42.624;23.386;2023-04-15T09:39:22;93571.34;;;17.05;36.92
7918;BME280;4004;42.624;23.386;2023-04-15T09:44:42;93579.56;;;16.67;36.54
7918;BME280;4004;42.624;23.386;2023-04-15T09:47:08;93580.88;;;16.55;36.68
7918;BME280;4004;42.624;23.386;2023-04-15T09:49:35;93595.63;;;16.16;38.38
7918;BME280;4004;42.624;23.386;2023-04-15T09:52:02;93592.59;;;16.10;38.82
7918;BME280;4004;42.624;23.386;2023-04-15T09:54:34;93583.56;;;16.58;38.34
7918;BME280;4004;42.624;23.386;2023-04-15T09:57:05;93582.81;;;17.16;37.38
7918;BME280;4004;42.624;23.386;2023-04-15T09:59:32;93576.06;;;17.51;37.32
7918;BME280;4004;42.624;23.386;2023-04-15T10:02:03;93568.50;;;17.12;36.67
7918;BME280;4004;42.624;23.386;2023-04-15T10:04:32;93566.69;;;16.74;37.23
7918;BME280;4004;42.624;23.386;2023-04-15T10:07:02;93568.06;;;16.55;37.13
7918;BME280;4004;42.624;23.386;2023-04-15T10:09:30;93565.72;;;16.57;37.66
7918;BME280;4004;42.624;23.386;2023-04-15T10:11:57;93561.75;;;17.24;37.08
7918;BME280;4004;42.624;23.386;2023-04-15T10:14:27;93562.91;;;17.50;36.39
7918;BME280;4004;42.624;23.386;2023-04-15T10:17:01;93547.75;;;17.25;35.96
7918;BME280;4004;42.624;23.386;2023-04-15T10:19:30;93546.63;;;17.23;36.56
7918;BME280;4004;42.624;23.386;2023-04-15T10:21:58;93542.13;;;17.12;36.34
7918;BME280;4004;42.624;23.386;2023-04-15T10:24:26;93554.56;;;16.83;37.11
7918;BME280;4004;42.624;23.386;2023-04-15T10:26:53;93520.78;;;16.26;36.79
7918;BME280;4004;42.624;23.386;2023-04-15T10:29:23;93542.28;;;16.71;37.71
7918;BME280;4004;42.624;23.386;2023-04-15T10:31:52;93550.78;;;16.73;37.39
7918;BME280;4004;42.624;23.386;2023-04-15T10:34:22;93560.91;;;16.38;38.78
7918;BME280;4004;42.624;23.386;2023-04-15T10:36:49;93559.41;;;15.99;37.57
7918;BME280;4004;42.624;23.386;2023-04-15T10:39:38;93549.34;;;15.96;38.47
7918;BME280;4004;42.624;23.386;2023-04-15T10:42:07;93538.97;;;15.91;37.90
7918;BME280;4004;42.624;23.386;2023-04-15T10:44:35;93535.63;;;15.76;37.81
7918;BME280;4004;42.624;23.386;2023-04-15T10:47:05;93562.63;;;15.87;37.71
7918;BME280;4004;42.624;23.386;2023-04-15T10:49:42;93541.66;;;15.91;38.08
7918;BME280;4004;42.624;23.386;2023-04-15T10:52:10;93536.59;;;15.97;37.64
7918;BME280;4004;42.624;23.386;2023-04-15T10:54:37;93532.56;;;16.43;37.00
7918;BME280;4004;42.624;23.386;2023-04-15T10:57:08;93520.00;;;16.87;36.56
7918;BME280;4004;42.624;23.386;2023-04-15T10:59:37;93519.19;;;17.40;37.09
7918;BME280;4004;42.624;23.386;2023-04-15T11:02:05;93531.81;;;17.27;36.12
7918;BME280;4004;42.624;23.386;2023-04-15T11:04:53;93524.75;;;17.06;35.56
7918;BME280;4004;42.624;23.386;2023-04-15T11:07:46;93531.06;;;16.99;35.30
7918;BME280;4004;42.624;23.386;2023-04-15T11:13:20;93526.97;;;17.15;36.24
7918;BME280;4004;42.624;23.386;2023-04-15T11:15:48;93528.53;;;17.39;34.81
7918;BME280;4004;42.624;23.386;2023-04-15T11:18:17;93534.34;;;17.38;34.80
7918;BME280;4004;42.624;23.386;2023-04-15T11:20:46;93529.22;;;17.67;34.88
7918;BME280;4004;42.624;23.386;2023-04-15T11:23:16;93526.31;;;18.01;35.13
7918;BME280;4004;42.624;23.386;2023-04-15T11:25:43;93523.69;;;18.18;33.42
7918;BME280;4004;42.624;23.386;2023-04-15T11:28:11;93528.41;;;18.14;33.53
7918;BME280;4004;42.624;23.386;2023-04-15T11:30:38;93535.56;;;18.28;33.17
7918;BME280;4004;42.624;23.386;2023-04-15T11:33:06;93527.09;;;18.22;34.66
7918;BME280;4004;42.624;23.386;2023-04-15T11:35:33;93511.13;;;18.04;34.37
7918;BME280;4004;42.624;23.386;2023-04-15T11:38:03;93526.19;;;18.29;34.54
7918;BME280;4004;42.624;23.386;2023-04-15T11:40:30;93532.84;;;18.28;34.44
7918;BME280;4004;42.624;23.386;2023-04-15T11:43:03;93525.94;;;18.23;33.23
7918;BME280;4004;42.624;23.386;2023-04-15T11:45:30;93499.88;;;17.82;33.90
7918;BME280;4004;42.624;23.386;2023-04-15T11:48:05;93519.19;;;17.88;32.89
7918;BME280;4004;42.624;23.386;2023-04-15T11:50:32;93518.13;;;17.58;33.92
7918;BME280;4004;42.624;23.386;2023-04-15T11:53:01;93522.38;;;17.59;33.02
7918;BME280;4004;42.624;23.386;2023-04-15T11:55:30;93515.16;;;17.72;33.22
7918;BME280;4004;42.624;23.386;2023-04-15T11:58:11;93504.41;;;17.89;32.57
7918;BME280;4004;42.624;23.386;2023-04-15T12:00:39;93510.91;;;18.35;32.32
7918;BME280;4004;42.624;23.386;2023-04-15T12:03:13;93513.41;;;18.66;31.70
7918;BME280;4004;42.624;23.386;2023-04-15T12:06:02;93516.47;;;18.68;31.58
7918;BME280;4004;42.624;23.386;2023-04-15T12:11:38;93514.72;;;18.57;29.12
7918;BME280;4004;42.624;23.386;2023-04-15T12:14:08;93500.22;;;18.44;29.88
7918;BME280;4004;42.624;23.386;2023-04-15T12:16:39;93508.88;;;18.59;28.99
7918;BME280;4004;42.624;23.386;2023-04-15T12:19:09;93505.72;;;18.40;28.98
7918;BME280;4004;42.624;23.386;2023-04-15T12:21:39;93505.16;;;18.49;28.66
7918;BME280;4004;42.624;23.386;2023-04-15T12:24:07;93499.81;;;18.46;29.49
7918;BME280;4004;42.624;23.386;2023-04-15T12:26:40;93491.72;;;18.22;29.21
7918;BME280;4004;42.624;23.386;2023-04-15T12:29:09;93503.38;;;18.22;29.42
7918;BME280;4004;42.624;23.386;2023-04-15T12:31:46;93508.69;;;18.30;29.42
7918;BME280;4004;42.624;23.386;2023-04-15T12:34:13;93507.63;;;18.43;28.21
7918;BME280;4004;42.624;23.386;2023-04-15T12:36:40;93505.53;;;18.51;28.03
7918;BME280;4004;42.624;23.386;2023-04-15T12:39:07;93505.94;;;18.50;28.28
7918;BME280;4004;42.624;23.386;2023-04-15T12:41:34;93507.16;;;18.29;28.84
7918;BME280;4004;42.624;23.386;2023-04-15T12:44:03;93517.88;;;18.36;28.24
7918;BME280;4004;42.624;23.386;2023-04-15T12:46:29;93523.88;;;18.47;28.67
7918;BME280;4004;42.624;23.386;2023-04-15T12:48:56;93518.53;;;18.43;29.87
7918;BME280;4004;42.624;23.386;2023-04-15T12:51:24;93523.44;;;18.69;29.31
7918;BME280;4004;42.624;23.386;2023-04-15T12:53:50;93517.63;;;18.87;28.88
7918;BME280;4004;42.624;23.386;2023-04-15T12:56:17;93523.88;;;19.03;28.45
7918;BME280;4004;42.624;23.386;2023-04-15T12:58:44;93521.94;;;19.04;28.24
7918;BME280;4004;42.624;23.386;2023-04-15T13:01:12;93521.94;;;19.20;28.05
7918;BME280;4004;42.624;23.386;2023-04-15T13:03:38;93518.03;;;19.21;27.98
7918;BME280;4004;42.624;23.386;2023-04-15T13:06:05;93523.22;;;19.32;27.21
7918;BME280;4004;42.624;23.386;2023-04-15T13:08:32;93522.38;;;19.35;27.09
7918;BME280;4004;42.624;23.386;2023-04-15T13:10:59;93506.09;;;19.15;27.55
7918;BME280;4004;42.624;23.386;2023-04-15T13:13:26;93505.59;;;19.04;27.89
7918;BME280;4004;42.624;23.386;2023-04-15T13:15:53;93504.81;;;19.03;27.78
7918;BME280;4004;42.624;23.386;2023-04-15T13:18:21;93498.78;;;19.12;27.87
7918;BME280;4004;42.624;23.386;2023-04-15T13:20:48;93508.72;;;19.02;27.90
7918;BME280;4004;42.624;23.386;2023-04-15T13:23:15;93491.53;;;19.05;28.36
7918;BME280;4004;42.624;23.386;2023-04-15T13:25:42;93498.28;;;19.17;28.30